createdAt,value
2019-04-06T00:00:49.363Z,100300.03
2019-04-06T00:03:21.020Z,100303.86
2019-04-06T00:05:53.434Z,100306.41
2019-04-06T00:08:23.770Z,100302.58
2019-04-06T00:10:55.267Z,100310.23
2019-04-06T00:13:25.617Z,100299.09
2019-04-06T00:15:57.285Z,100299.56
2019-04-06T00:18:27.701Z,100298.28
2019-04-06T00:20:58.271Z,100288.55
2019-04-06T00:23:29.522Z,100289.83
2019-04-06T00:25:59.993Z,100285.13
2019-04-06T00:28:30.584Z,100288.98
2019-04-06T00:31:20.025Z,100287.70
2019-04-06T00:33:50.264Z,100288.98
2019-04-06T00:36:22.071Z,100287.80
2019-04-06T00:38:52.321Z,100285.66
2019-04-06T00:41:22.929Z,100287.87
2019-04-06T00:43:53.277Z,100293.41
2019-04-06T00:46:25.821Z,100286.16
2019-04-06T00:48:56.131Z,100287.91
2019-04-06T00:51:26.417Z,100281.92
2019-04-06T00:53:57.028Z,100284.08
2019-04-06T00:56:29.822Z,100287.91
2019-04-06T00:59:00.377Z,100285.42
2019-04-06T01:01:30.839Z,100287.59
2019-04-06T01:04:01.434Z,100287.19
2019-04-06T01:06:33.035Z,100290.18
2019-04-06T01:09:04.145Z,100284.27
2019-04-06T01:11:34.764Z,100285.64
2019-04-06T01:14:05.036Z,100272.88
2019-04-06T01:16:35.375Z,100274.16
2019-04-06T01:19:05.872Z,100275.43
2019-04-06T01:21:36.160Z,100274.19
2019-04-06T01:24:06.984Z,100274.69
2019-04-06T01:26:37.261Z,100273.88
2019-04-06T01:29:09.000Z,100273.94
2019-04-06T01:31:39.284Z,100274.37
2019-04-06T01:34:10.495Z,100270.95
2019-04-06T01:36:41.810Z,100271.42
2019-04-06T01:39:12.889Z,100274.78
2019-04-06T01:41:43.245Z,100270.52
2019-04-06T01:44:14.099Z,100267.09
2019-04-06T01:46:44.735Z,100261.86
2019-04-06T01:49:15.088Z,100261.86
2019-04-06T01:51:45.675Z,100266.63
2019-04-06T01:54:15.944Z,100268.30
2019-04-06T01:56:46.601Z,100269.95
2019-04-06T01:59:16.847Z,100262.67
2019-04-06T02:02:06.057Z,100269.95
2019-04-06T02:04:36.794Z,100266.97
2019-04-06T02:07:07.100Z,100271.30
2019-04-06T02:09:37.664Z,100265.75
2019-04-06T02:12:08.261Z,100264.04
2019-04-06T02:14:38.553Z,100263.97
2019-04-06T02:17:08.843Z,100268.67
2019-04-06T02:19:39.650Z,100266.59
2019-04-06T02:22:09.960Z,100266.59
2019-04-06T02:24:40.252Z,100273.88
2019-04-06T02:27:14.089Z,100262.86
2019-04-06T02:29:45.099Z,100258.63
2019-04-06T02:32:37.635Z,100259.93
2019-04-06T02:35:33.925Z,100257.44
2019-04-06T02:38:20.397Z,100256.56
2019-04-06T02:41:12.771Z,100253.55
2019-04-06T02:43:43.069Z,100251.90
2019-04-06T02:46:13.623Z,100257.50
2019-04-06T02:48:44.119Z,100254.11
2019-04-06T02:51:18.336Z,100248.16
2019-04-06T02:53:48.659Z,100257.09
2019-04-06T02:56:20.468Z,100260.05
2019-04-06T02:58:50.962Z,100262.58
2019-04-06T03:01:21.308Z,100262.58
2019-04-06T03:03:52.192Z,100260.83
2019-04-06T03:06:22.779Z,100252.37
2019-04-06T03:08:53.780Z,100261.70
2019-04-06T03:11:24.184Z,100257.47
2019-04-06T03:13:54.928Z,100255.73
2019-04-06T03:16:25.267Z,100257.00
2019-04-06T03:18:55.847Z,100258.28
2019-04-06T03:21:26.217Z,100254.42
2019-04-06T03:23:56.988Z,100262.02
2019-04-06T03:26:27.294Z,100253.55
2019-04-06T03:28:58.560Z,100260.33
2019-04-06T03:31:29.350Z,100264.16
2019-04-06T03:33:59.942Z,100265.50
2019-04-06T03:36:30.409Z,100260.73
2019-04-06T03:39:01.250Z,100266.31
2019-04-06T03:41:32.535Z,100265.50
2019-04-06T03:44:06.076Z,100270.23
2019-04-06T03:46:36.388Z,100266.88
2019-04-06T03:49:06.980Z,100256.20
2019-04-06T03:51:37.474Z,100259.16
2019-04-06T03:54:08.011Z,100265.13
2019-04-06T03:56:38.561Z,100260.49
2019-04-06T03:59:08.881Z,100257.94
2019-04-06T04:01:39.801Z,100258.78
2019-04-06T04:04:10.059Z,100262.67
2019-04-06T04:06:40.389Z,100262.67
2019-04-06T04:09:11.019Z,100257.09
2019-04-06T04:11:41.430Z,100255.82
2019-04-06T04:14:12.029Z,100257.56
2019-04-06T04:16:42.609Z,100259.24
2019-04-06T04:19:12.915Z,100258.03
2019-04-06T04:21:44.955Z,100258.03
2019-04-06T04:24:15.240Z,100262.67
2019-04-06T04:26:47.033Z,100259.65
2019-04-06T04:29:17.644Z,100263.55
2019-04-06T04:31:48.682Z,100264.84
2019-04-06T04:34:19.002Z,100271.20
2019-04-06T04:36:50.467Z,100273.69
2019-04-06T04:39:20.769Z,100274.09
2019-04-06T04:41:51.109Z,100268.55
2019-04-06T04:44:21.765Z,100277.09
2019-04-06T04:46:52.029Z,100268.15
2019-04-06T04:49:22.974Z,100274.97
2019-04-06T04:51:53.277Z,100268.15
2019-04-06T04:54:23.827Z,100277.12
2019-04-06T04:56:54.124Z,100276.71
2019-04-06T04:59:24.496Z,100277.12
2019-04-06T05:01:54.821Z,100280.08
2019-04-06T05:04:25.243Z,100275.44
2019-04-06T05:06:55.517Z,100283.91
2019-04-06T05:09:27.568Z,100288.67
2019-04-06T05:11:57.854Z,100274.16
2019-04-06T05:14:57.201Z,100284.84
2019-04-06T05:17:28.281Z,100285.28
2019-04-06T05:19:59.008Z,100290.04
2019-04-06T05:22:32.002Z,100280.73
2019-04-06T05:25:02.528Z,100294.40
2019-04-06T05:27:34.031Z,100293.19
2019-04-06T05:30:07.365Z,100294.89
2019-04-06T05:32:39.516Z,100289.89
2019-04-06T05:35:09.933Z,100289.89
2019-04-06T05:37:40.985Z,100292.16
2019-04-06T05:40:12.200Z,100296.98
2019-04-06T05:42:43.544Z,100300.19
2019-04-06T05:45:19.704Z,100297.78
2019-04-06T05:47:51.685Z,100309.02
2019-04-06T05:50:22.856Z,100304.09
2019-04-06T05:52:53.600Z,100307.23
2019-04-06T05:55:24.695Z,100307.94
2019-04-06T05:58:03.431Z,100310.67
2019-04-06T06:00:27.864Z,100314.36
2019-04-06T06:02:59.736Z,100317.11
2019-04-06T06:05:30.599Z,100316.79
2019-04-06T06:08:00.868Z,100320.84
2019-04-06T06:10:31.676Z,100320.20
2019-04-06T06:13:02.372Z,100323.71
2019-04-06T06:15:32.971Z,100328.77
2019-04-06T06:18:03.394Z,100323.41
2019-04-06T06:20:33.944Z,100326.56
2019-04-06T06:23:04.485Z,100332.77
2019-04-06T06:25:35.007Z,100338.73
2019-04-06T06:28:14.165Z,100331.05
2019-04-06T06:30:38.290Z,100331.68
2019-04-06T06:33:08.627Z,100329.79
2019-04-06T06:35:40.276Z,100329.13
2019-04-06T06:38:10.659Z,100327.70
2019-04-06T06:40:41.644Z,100325.44
2019-04-06T06:43:13.158Z,100331.63
2019-04-06T06:45:45.959Z,100328.34
2019-04-06T06:48:16.478Z,100326.09
2019-04-06T06:50:47.383Z,100326.09
2019-04-06T06:53:20.250Z,100329.34
2019-04-06T06:55:53.274Z,100320.37
2019-04-06T06:58:25.523Z,100320.37
2019-04-06T07:00:57.459Z,100324.92
2019-04-06T07:03:28.022Z,100327.36
2019-04-06T07:05:58.663Z,100320.00
2019-04-06T07:08:31.159Z,100319.81
2019-04-06T07:11:01.534Z,100314.58
2019-04-06T07:13:32.392Z,100300.50
2019-04-06T07:16:03.428Z,100300.50
2019-04-06T07:18:34.139Z,100314.80
2019-04-06T07:21:06.254Z,100313.91
2019-04-06T07:23:36.864Z,100306.62
2019-04-06T07:26:07.332Z,100306.62
2019-04-06T07:28:39.447Z,100311.46
2019-04-06T07:31:09.784Z,100314.77
2019-04-06T07:33:40.449Z,100312.62
2019-04-06T07:36:10.915Z,100310.05
2019-04-06T07:38:41.502Z,100312.94
2019-04-06T07:41:13.427Z,100312.94
2019-04-06T07:43:44.505Z,100318.23
2019-04-06T07:46:15.402Z,100313.08
2019-04-06T07:48:48.269Z,100314.38
2019-04-06T07:51:18.904Z,100318.94
2019-04-06T07:53:51.599Z,100326.08
2019-04-06T07:56:22.006Z,100319.80
2019-04-06T07:58:53.664Z,100320.66
2019-04-06T08:01:24.160Z,100329.70
2019-04-06T08:03:54.441Z,100311.85
2019-04-06T08:06:26.401Z,100317.66
2019-04-06T08:08:58.458Z,100309.16
2019-04-06T08:11:29.110Z,100316.00
2019-04-06T08:14:00.575Z,100315.88
2019-04-06T08:16:31.370Z,100306.59
2019-04-06T08:19:02.299Z,100306.59
2019-04-06T08:21:33.008Z,100307.62
2019-04-06T08:24:03.397Z,100312.53
2019-04-06T08:26:33.713Z,100315.67
2019-04-06T08:29:05.110Z,100312.71
2019-04-06T08:31:36.673Z,100306.77
2019-04-06T08:34:07.313Z,100314.94
2019-04-06T08:36:37.936Z,100315.08
2019-04-06T08:39:09.243Z,100312.53
2019-04-06T08:41:40.049Z,100314.66
2019-04-06T08:44:11.523Z,100309.15
2019-04-06T08:46:42.271Z,100300.42
2019-04-06T08:49:12.917Z,100306.30
2019-04-06T08:51:43.634Z,100304.82
2019-04-06T08:54:17.514Z,100304.09
2019-04-06T08:56:49.565Z,100300.34
2019-04-06T08:59:20.119Z,100292.17
2019-04-06T09:01:50.450Z,100298.63
2019-04-06T09:04:20.748Z,100305.48
2019-04-06T09:06:52.985Z,100305.03
2019-04-06T09:09:24.952Z,100300.33
2019-04-06T09:11:55.870Z,100304.19
2019-04-06T09:14:26.431Z,100303.35
2019-04-06T09:16:59.280Z,100305.84
2019-04-06T09:19:29.609Z,100299.45
2019-04-06T09:24:37.438Z,100287.91
2019-04-06T09:27:08.818Z,100295.63
2019-04-06T09:29:40.767Z,100294.72
2019-04-06T09:32:14.395Z,100283.95
2019-04-06T09:34:45.119Z,100286.95
2019-04-06T09:37:15.794Z,100286.98
2019-04-06T09:39:46.377Z,100284.87
2019-04-06T09:42:18.406Z,100282.30
2019-04-06T09:45:00.235Z,100285.72
2019-04-06T09:47:56.305Z,100285.73
2019-04-06T09:50:47.687Z,100278.83
2019-04-06T09:53:40.202Z,100267.64
2019-04-06T09:56:21.385Z,100267.64
2019-04-06T09:59:33.983Z,100271.50
2019-04-06T10:02:10.296Z,100269.73
2019-04-06T10:05:07.756Z,100272.36
2019-04-06T10:08:00.687Z,100272.86
2019-04-06T10:10:59.055Z,100273.30
2019-04-06T10:13:47.758Z,100269.02
2019-04-06T10:16:29.312Z,100263.35
2019-04-06T10:19:09.047Z,100265.45
2019-04-06T10:21:55.441Z,100265.76
2019-04-06T10:24:34.281Z,100267.87
2019-04-06T10:27:27.158Z,100267.06
2019-04-06T10:30:25.784Z,100278.24
2019-04-06T10:33:05.384Z,100284.76
2019-04-06T10:35:55.140Z,100285.02
2019-04-06T10:38:45.109Z,100286.30
2019-04-06T10:41:28.168Z,100288.03
2019-04-06T10:44:26.994Z,100292.80
2019-04-06T10:47:19.310Z,100290.34
2019-04-06T10:50:21.400Z,100293.39
2019-04-06T10:53:09.895Z,100272.44
2019-04-06T10:55:54.442Z,100275.45
2019-04-06T10:58:51.590Z,100268.50
2019-04-06T11:01:39.526Z,100257.45
2019-04-06T11:04:18.645Z,100256.59
2019-04-06T11:07:13.991Z,100249.83
2019-04-06T11:09:55.571Z,100248.08
2019-04-06T11:12:50.681Z,100245.95
2019-04-06T11:15:58.453Z,100241.83
2019-04-06T11:18:50.891Z,100241.66
2019-04-06T11:21:42.954Z,100246.04
2019-04-06T11:24:44.914Z,100251.44
2019-04-06T11:27:32.874Z,100241.92
2019-04-06T11:30:23.638Z,100232.42
2019-04-06T11:33:18.921Z,100237.59
2019-04-06T11:36:12.491Z,100233.30
2019-04-06T11:39:01.541Z,100230.04
2019-04-06T11:41:46.957Z,100229.19
2019-04-06T11:44:36.601Z,100229.19
2019-04-06T11:47:16.121Z,100227.75
2019-04-06T11:50:11.622Z,100227.58
2019-04-06T11:52:54.398Z,100221.91
2019-04-06T11:55:45.032Z,100222.44
2019-04-06T11:58:30.182Z,100220.64
2019-04-06T12:01:19.352Z,100228.95
2019-04-06T12:04:09.226Z,100225.45
2019-04-06T12:07:07.692Z,100219.89
2019-04-06T12:10:06.238Z,100220.31
2019-04-06T12:12:55.848Z,100225.20
2019-04-06T12:15:48.284Z,100221.53
2019-04-06T12:18:23.936Z,100216.87
2019-04-06T12:21:13.525Z,100208.52
2019-04-06T12:24:04.849Z,100210.17
2019-04-06T12:26:57.584Z,100206.39
2019-04-06T12:29:46.061Z,100205.56
2019-04-06T12:32:44.892Z,100208.47
2019-04-06T12:35:34.227Z,100198.64
2019-04-06T12:38:25.515Z,100197.97
2019-04-06T12:41:14.044Z,100197.58
2019-04-06T12:44:06.538Z,100189.98
2019-04-06T12:47:04.096Z,100189.98
2019-04-06T12:49:52.107Z,100187.44
2019-04-06T12:52:32.649Z,100199.00
2019-04-06T12:55:27.506Z,100190.60
2019-04-06T12:58:08.045Z,100182.75
2019-04-06T13:01:03.202Z,100182.75
2019-04-06T13:03:46.224Z,100182.82
2019-04-06T13:06:34.795Z,100174.75
2019-04-06T13:09:26.703Z,100172.80
2019-04-06T13:12:22.752Z,100172.80
2019-04-06T13:15:21.483Z,100169.47
2019-04-06T13:18:07.563Z,100163.67
2019-04-06T13:21:06.370Z,100164.02
2019-04-06T13:23:55.768Z,100160.01
2019-04-06T13:26:48.329Z,100155.25
2019-04-06T13:29:50.192Z,100154.31
2019-04-06T13:32:37.126Z,100154.31
2019-04-06T13:35:38.771Z,100151.28
2019-04-06T13:38:23.277Z,100147.77
2019-04-06T13:41:11.333Z,100154.89
2019-04-06T13:43:47.438Z,100154.50
2019-04-06T13:46:39.951Z,100143.55
2019-04-06T13:49:38.538Z,100147.70
2019-04-06T13:52:30.911Z,100151.67
2019-04-06T13:55:21.109Z,100146.95
2019-04-06T13:58:05.679Z,100156.09
2019-04-06T14:00:45.030Z,100152.66
2019-04-06T14:03:39.377Z,100151.08
2019-04-06T14:06:39.068Z,100148.09
2019-04-06T14:09:27.093Z,100152.89
2019-04-06T14:12:43.031Z,100148.52
2019-04-06T14:15:41.510Z,100149.12
2019-04-06T14:18:22.181Z,100149.66
2019-04-06T14:21:12.300Z,100146.15
2019-04-06T14:24:05.265Z,100144.06
2019-04-06T14:26:55.425Z,100143.32
2019-04-06T14:29:36.066Z,100138.13
2019-04-06T14:32:24.413Z,100144.95
2019-04-06T14:35:22.950Z,100139.77
2019-04-06T14:38:27.805Z,100131.11
2019-04-06T14:41:16.344Z,100131.11
2019-04-06T14:44:14.379Z,100136.38
2019-04-06T14:47:05.499Z,100142.98
2019-04-06T14:49:54.288Z,100139.38
2019-04-06T14:52:49.830Z,100147.03
2019-04-06T14:55:42.750Z,100147.50
2019-04-06T14:58:35.787Z,100146.41
2019-04-06T15:01:36.969Z,100151.56
2019-04-06T15:04:28.444Z,100147.27
2019-04-06T15:07:19.300Z,100152.50
2019-04-06T15:10:12.722Z,100144.75
2019-04-06T15:13:08.320Z,100145.96
2019-04-06T15:16:09.053Z,100143.07
2019-04-06T15:18:59.133Z,100145.48
2019-04-06T15:21:59.040Z,100143.56
2019-04-06T15:24:52.014Z,100145.57
2019-04-06T15:27:52.067Z,100147.61
2019-04-06T15:30:41.885Z,100144.93
2019-04-06T15:33:32.015Z,100145.80
2019-04-06T15:36:20.918Z,100138.43
2019-04-06T15:39:13.390Z,100129.81
2019-04-06T15:42:01.431Z,100121.00
2019-04-06T15:44:59.627Z,100126.86
2019-04-06T15:47:48.820Z,100126.74
2019-04-06T15:50:49.317Z,100128.70
2019-04-06T15:53:35.558Z,100120.88
2019-04-06T15:56:12.365Z,100117.72
2019-04-06T15:58:49.047Z,100115.84
2019-04-06T16:02:00.313Z,100114.64
2019-04-06T16:04:31.501Z,100125.48
2019-04-06T16:07:39.581Z,100125.48
2019-04-06T16:10:31.765Z,100115.61
2019-04-06T16:13:15.393Z,100117.70
2019-04-06T16:15:52.576Z,100121.79
2019-04-06T16:18:48.869Z,100121.97
2019-04-06T16:21:35.761Z,100120.20
2019-04-06T16:24:23.940Z,100122.27
2019-04-06T16:27:09.559Z,100116.20
2019-04-06T16:29:51.446Z,100113.87
2019-04-06T16:32:57.678Z,100119.95
2019-04-06T16:35:51.217Z,100125.34
2019-04-06T16:38:47.109Z,100129.02
2019-04-06T16:41:43.340Z,100125.71
2019-04-06T16:44:33.844Z,100123.20
2019-04-06T16:47:24.161Z,100119.84
2019-04-06T16:50:24.194Z,100125.51
2019-04-06T16:53:17.414Z,100122.12
2019-04-06T16:56:07.579Z,100117.88
2019-04-06T16:58:51.579Z,100123.91
2019-04-06T17:01:41.281Z,100122.23
2019-04-06T17:04:43.070Z,100121.41
2019-04-06T17:07:31.378Z,100121.41
2019-04-06T17:10:19.433Z,100121.41
2019-04-06T17:13:07.677Z,100130.40
2019-04-06T17:15:48.029Z,100126.49
2019-04-06T17:18:26.486Z,100135.07
2019-04-06T17:21:19.481Z,100127.69
2019-04-06T17:23:56.125Z,100133.73
2019-04-06T17:26:42.314Z,100132.08
2019-04-06T17:29:43.761Z,100133.00
2019-04-06T17:32:35.637Z,100133.09
2019-04-06T17:35:28.126Z,100132.34
2019-04-06T17:38:19.351Z,100134.57
2019-04-06T17:41:01.799Z,100137.62
2019-04-06T17:43:54.296Z,100130.35
2019-04-06T17:46:49.289Z,100136.77
2019-04-06T17:49:50.918Z,100134.63
2019-04-06T17:52:31.537Z,100131.64
2019-04-06T17:55:26.977Z,100138.09
2019-04-06T17:58:08.357Z,100136.80
2019-04-06T18:01:07.236Z,100139.80
2019-04-06T18:03:59.152Z,100138.04
2019-04-06T18:06:39.596Z,100148.31
2019-04-06T18:09:35.120Z,100147.38
2019-04-06T18:12:24.146Z,100147.33
2019-04-06T18:14:56.197Z,100150.32
2019-04-06T18:17:26.766Z,100155.42
2019-04-06T18:19:58.636Z,100154.95
2019-04-06T18:22:28.950Z,100157.47
2019-04-06T18:25:01.169Z,100150.49
2019-04-06T18:28:05.282Z,100150.49
2019-04-06T18:30:36.383Z,100155.63
2019-04-06T18:33:14.865Z,100165.44
2019-04-06T18:35:45.666Z,100164.95
2019-04-06T18:38:20.980Z,100163.98
2019-04-06T18:40:51.563Z,100165.17
2019-04-06T18:43:25.522Z,100163.41
2019-04-06T18:45:54.861Z,100166.31
2019-04-06T18:48:27.366Z,100162.36
2019-04-06T18:50:58.205Z,100163.55
2019-04-06T18:56:06.269Z,100165.68
2019-04-06T19:03:50.677Z,100174.39
2019-04-06T19:06:21.020Z,100167.41
2019-04-06T19:08:51.337Z,100167.73
2019-04-06T19:11:22.012Z,100172.25
2019-04-06T19:13:53.347Z,100175.09
2019-04-06T19:16:24.227Z,100184.36
2019-04-06T19:18:59.218Z,100179.05
2019-04-06T19:21:30.989Z,100181.08
2019-04-06T19:24:02.024Z,100183.15
2019-04-06T19:26:34.085Z,100183.23
2019-04-06T19:29:06.077Z,100184.52
2019-04-06T19:31:36.480Z,100185.02
2019-04-06T19:34:15.169Z,100185.39
2019-04-06T19:36:45.686Z,100191.72
2019-04-06T19:39:16.278Z,100190.68
2019-04-06T19:41:46.590Z,100188.52
2019-04-06T19:44:18.356Z,100193.20
2019-04-06T19:46:48.964Z,100190.48
2019-04-06T19:49:20.526Z,100192.89
2019-04-06T19:51:50.907Z,100189.81
2019-04-06T19:54:22.112Z,100187.18
2019-04-06T19:56:52.956Z,100187.50
2019-04-06T19:59:24.166Z,100184.06
2019-04-06T20:01:54.877Z,100186.67
2019-04-06T20:04:25.408Z,100184.98
2019-04-06T20:06:56.074Z,100183.29
2019-04-06T20:09:26.576Z,100178.75
2019-04-06T20:12:04.819Z,100185.68
2019-04-06T20:14:30.509Z,100180.97
2019-04-06T20:17:02.363Z,100171.52
2019-04-06T20:19:38.121Z,100177.07
2019-04-06T20:22:09.125Z,100175.73
2019-04-06T20:24:39.529Z,100176.50
2019-04-06T20:27:12.381Z,100171.63
2019-04-06T20:29:45.421Z,100177.02
2019-04-06T20:32:22.292Z,100176.83
2019-04-06T20:34:57.400Z,100174.25
2019-04-06T20:37:28.604Z,100177.70
2019-04-06T20:40:02.971Z,100171.70
2019-04-06T20:42:34.977Z,100170.04
2019-04-06T20:45:11.398Z,100169.28
2019-04-06T20:47:46.561Z,100166.05
2019-04-06T20:50:19.660Z,100174.77
2019-04-06T20:52:50.937Z,100165.41
2019-04-06T20:55:23.639Z,100166.23
2019-04-06T20:57:56.774Z,100165.31
2019-04-06T21:00:28.798Z,100172.97
2019-04-06T21:02:59.294Z,100179.37
2019-04-06T21:05:30.091Z,100176.77
2019-04-06T21:08:00.900Z,100170.40
2019-04-06T21:10:34.062Z,100171.27
2019-04-06T21:13:21.661Z,100170.40
2019-04-06T21:15:52.905Z,100173.70
2019-04-06T21:18:25.311Z,100171.12
2019-04-06T21:20:57.957Z,100177.17
2019-04-06T21:23:31.355Z,100172.81
2019-04-06T21:26:06.085Z,100167.58
2019-04-06T21:28:38.090Z,100170.87
2019-04-06T21:31:10.156Z,100174.25
2019-04-06T21:33:40.602Z,100172.41
2019-04-06T21:36:11.190Z,100169.37
2019-04-06T21:38:41.613Z,100168.90
2019-04-06T21:41:12.429Z,100170.09
2019-04-06T21:43:43.398Z,100163.16
2019-04-06T21:46:14.350Z,100163.50
2019-04-06T21:48:44.661Z,100162.58
2019-04-06T21:51:15.894Z,100161.23
2019-04-06T21:53:47.953Z,100166.23
2019-04-06T21:56:19.139Z,100170.38
2019-04-06T21:58:50.412Z,100170.38
2019-04-06T22:01:21.842Z,100171.94
2019-04-06T22:03:53.905Z,100163.20
2019-04-06T22:06:26.325Z,100172.92
2019-04-06T22:08:57.690Z,100173.25
2019-04-06T22:11:28.834Z,100166.44
2019-04-06T22:13:59.245Z,100166.50
2019-04-06T22:16:31.385Z,100172.86
2019-04-06T22:19:01.874Z,100164.36
2019-04-06T22:21:32.748Z,100167.45
2019-04-06T22:24:04.830Z,100165.82
2019-04-06T22:26:36.894Z,100165.02
2019-04-06T22:29:08.184Z,100156.52
2019-04-06T22:31:38.495Z,100160.41
2019-04-06T22:34:09.287Z,100162.16
2019-04-06T22:36:40.194Z,100157.84
2019-04-06T22:39:11.218Z,100155.63
2019-04-06T22:41:42.053Z,100155.17
2019-04-06T22:44:14.391Z,100156.55
2019-04-06T22:46:47.546Z,100150.80
2019-04-06T22:49:19.033Z,100148.88
2019-04-06T22:51:49.360Z,100141.75
2019-04-06T22:54:20.004Z,100142.73
2019-04-06T22:56:50.322Z,100141.30
2019-04-06T22:59:20.971Z,100139.86
2019-04-06T23:01:51.653Z,100141.25
2019-04-06T23:04:51.329Z,100135.95
2019-04-06T23:07:24.870Z,100145.53
2019-04-06T23:09:55.447Z,100127.77
2019-04-06T23:12:26.180Z,100133.52
2019-04-06T23:14:56.696Z,100134.94
2019-04-06T23:17:28.252Z,100127.74
2019-04-06T23:19:59.083Z,100129.13
2019-04-06T23:22:30.193Z,100124.84
2019-04-06T23:25:00.587Z,100126.20
2019-04-06T23:27:32.612Z,100129.66
2019-04-06T23:30:02.938Z,100123.71
2019-04-06T23:32:34.720Z,100125.45
2019-04-06T23:35:05.855Z,100122.01
2019-04-06T23:37:36.740Z,100125.84
2019-04-06T23:40:07.604Z,100111.30
2019-04-06T23:42:41.127Z,100117.31
2019-04-06T23:45:11.778Z,100115.21
2019-04-06T23:47:42.077Z,100114.34
2019-04-06T23:50:15.486Z,100112.16
2019-04-06T23:52:45.084Z,100111.77
2019-04-06T23:55:16.782Z,100115.16
2019-04-06T23:57:47.798Z,100115.61
